sensor_id;sensor_type;location;lat;lon;timestamp;P1;durP1;ratioP1;P2;durP2;ratioP2
16407;SDS011;8313;49.894;8.084;2022-12-18T00:01:42;24.40;;;11.43;;
16407;SDS011;8313;49.894;8.084;2022-12-18T00:04:21;23.03;;;9.27;;
16407;SDS011;8313;49.894;8.084;2022-12-18T00:06:49;18.30;;;7.97;;
16407;SDS011;8313;49.894;8.084;2022-12-18T00:09:15;11.70;;;6.63;;
16407;SDS011;8313;49.894;8.084;2022-12-18T00:11:41;18.23;;;7.13;;
16407;SDS011;8313;49.894;8.084;2022-12-18T00:14:07;22.50;;;9.73;;
16407;SDS011;8313;49.894;8.084;2022-12-18T00:16:34;21.63;;;10.40;;
16407;SDS011;8313;49.894;8.084;2022-12-18T00:19:02;49.87;;;17.97;;
16407;SDS011;8313;49.894;8.084;2022-12-18T00:21:29;50.70;;;18.20;;
16407;SDS011;8313;49.894;8.084;2022-12-18T00:23:56;32.93;;;13.03;;
16407;SDS011;8313;49.894;8.084;2022-12-18T00:26:23;31.87;;;11.63;;
16407;SDS011;8313;49.894;8.084;2022-12-18T00:28:59;18.77;;;9.80;;
16407;SDS011;8313;49.894;8.084;2022-12-18T00:31:29;23.67;;;9.20;;
16407;SDS011;8313;49.894;8.084;2022-12-18T00:33:55;29.20;;;9.03;;
16407;SDS011;8313;49.894;8.084;2022-12-18T00:36:25;17.20;;;9.27;;
16407;SDS011;8313;49.894;8.084;2022-12-18T00:38:53;19.60;;;9.17;;
16407;SDS011;8313;49.894;8.084;2022-12-18T00:41:20;23.00;;;9.73;;
16407;SDS011;8313;49.894;8.084;2022-12-18T00:44:06;13.33;;;7.03;;
16407;SDS011;8313;49.894;8.084;2022-12-18T00:46:33;21.63;;;7.80;;
16407;SDS011;8313;49.894;8.084;2022-12-18T00:48:59;25.40;;;9.40;;
16407;SDS011;8313;49.894;8.084;2022-12-18T00:51:25;24.27;;;8.97;;
16407;SDS011;8313;49.894;8.084;2022-12-18T00:53:51;16.83;;;6.53;;
16407;SDS011;8313;49.894;8.084;2022-12-18T00:56:17;16.43;;;7.33;;
16407;SDS011;8313;49.894;8.084;2022-12-18T00:58:46;16.20;;;7.60;;
16407;SDS011;8313;49.894;8.084;2022-12-18T01:01:11;17.63;;;7.80;;
16407;SDS011;8313;49.894;8.084;2022-12-18T01:03:37;19.33;;;9.40;;
16407;SDS011;8313;49.894;8.084;2022-12-18T01:06:13;21.90;;;8.60;;
16407;SDS011;8313;49.894;8.084;2022-12-18T01:08:40;24.40;;;10.10;;
16407;SDS011;8313;49.894;8.084;2022-12-18T01:11:09;14.20;;;7.00;;
16407;SDS011;8313;49.894;8.084;2022-12-18T01:13:37;18.23;;;7.37;;
16407;SDS011;8313;49.894;8.084;2022-12-18T01:16:03;14.17;;;9.00;;
16407;SDS011;8313;49.894;8.084;2022-12-18T01:18:29;17.03;;;9.43;;
16407;SDS011;8313;49.894;8.084;2022-12-18T01:20:57;26.00;;;9.57;;
16407;SDS011;8313;49.894;8.084;2022-12-18T01:23:23;16.57;;;7.17;;
16407;SDS011;8313;49.894;8.084;2022-12-18T01:25:52;22.80;;;7.67;;
16407;SDS011;8313;49.894;8.084;2022-12-18T01:28:17;22.77;;;6.90;;
16407;SDS011;8313;49.894;8.084;2022-12-18T01:30:43;17.50;;;6.93;;
16407;SDS011;8313;49.894;8.084;2022-12-18T01:33:09;19.63;;;7.93;;
16407;SDS011;8313;49.894;8.084;2022-12-18T01:35:44;12.17;;;6.70;;
16407;SDS011;8313;49.894;8.084;2022-12-18T01:38:10;18.17;;;7.40;;
16407;SDS011;8313;49.894;8.084;2022-12-18T01:40:35;17.97;;;8.10;;
16407;SDS011;8313;49.894;8.084;2022-12-18T01:43:01;35.77;;;8.10;;
16407;SDS011;8313;49.894;8.084;2022-12-18T01:45:28;23.20;;;8.90;;
16407;SDS011;8313;49.894;8.084;2022-12-18T01:47:57;13.47;;;7.50;;
16407;SDS011;8313;49.894;8.084;2022-12-18T01:53:18;10.70;;;6.00;;
16407;SDS011;8313;49.894;8.084;2022-12-18T01:55:47;15.00;;;6.60;;
16407;SDS011;8313;49.894;8.084;2022-12-18T01:58:16;16.73;;;6.50;;
16407;SDS011;8313;49.894;8.084;2022-12-18T02:00:43;18.87;;;7.10;;
16407;SDS011;8313;49.894;8.084;2022-12-18T02:03:09;24.70;;;9.50;;
16407;SDS011;8313;49.894;8.084;2022-12-18T02:05:49;18.70;;;8.97;;
16407;SDS011;8313;49.894;8.084;2022-12-18T02:25:25;18.10;;;7.30;;
16407;SDS011;8313;49.894;8.084;2022-12-18T02:28:04;11.07;;;6.47;;
16407;SDS011;8313;49.894;8.084;2022-12-18T02:30:35;17.77;;;8.70;;
16407;SDS011;8313;49.894;8.084;2022-12-18T02:33:04;17.80;;;8.70;;
16407;SDS011;8313;49.894;8.084;2022-12-18T02:35:32;18.60;;;5.63;;
16407;SDS011;8313;49.894;8.084;2022-12-18T02:38:00;20.10;;;7.77;;
16407;SDS011;8313;49.894;8.084;2022-12-18T02:40:29;21.70;;;8.57;;
16407;SDS011;8313;49.894;8.084;2022-12-18T02:43:08;16.77;;;7.50;;
16407;SDS011;8313;49.894;8.084;2022-12-18T02:45:35;13.57;;;6.73;;
16407;SDS011;8313;49.894;8.084;2022-12-18T02:48:02;16.40;;;7.40;;
16407;SDS011;8313;49.894;8.084;2022-12-18T02:58:46;17.10;;;6.70;;
16407;SDS011;8313;49.894;8.084;2022-12-18T03:04:03;19.67;;;8.13;;
16407;SDS011;8313;49.894;8.084;2022-12-18T03:06:40;11.93;;;6.90;;
16407;SDS011;8313;49.894;8.084;2022-12-18T03:09:12;12.07;;;5.60;;
16407;SDS011;8313;49.894;8.084;2022-12-18T03:11:47;20.40;;;8.87;;
16407;SDS011;8313;49.894;8.084;2022-12-18T03:14:38;14.20;;;7.13;;
16407;SDS011;8313;49.894;8.084;2022-12-18T03:17:09;23.83;;;7.83;;
16407;SDS011;8313;49.894;8.084;2022-12-18T03:19:38;25.93;;;8.63;;
16407;SDS011;8313;49.894;8.084;2022-12-18T03:22:06;13.50;;;6.80;;
16407;SDS011;8313;49.894;8.084;2022-12-18T03:24:42;17.40;;;8.07;;
16407;SDS011;8313;49.894;8.084;2022-12-18T03:27:12;19.50;;;8.60;;
16407;SDS011;8313;49.894;8.084;2022-12-18T03:29:44;13.47;;;6.70;;
16407;SDS011;8313;49.894;8.084;2022-12-18T03:32:23;24.77;;;8.53;;
16407;SDS011;8313;49.894;8.084;2022-12-18T03:34:52;12.93;;;6.47;;
16407;SDS011;8313;49.894;8.084;2022-12-18T03:37:22;19.43;;;6.83;;
16407;SDS011;8313;49.894;8.084;2022-12-18T03:39:47;22.53;;;8.80;;
16407;SDS011;8313;49.894;8.084;2022-12-18T03:42:21;12.67;;;6.57;;
16407;SDS011;8313;49.894;8.084;2022-12-18T03:45:11;18.27;;;7.63;;
16407;SDS011;8313;49.894;8.084;2022-12-18T03:47:59;14.93;;;7.70;;
16407;SDS011;8313;49.894;8.084;2022-12-18T03:50:56;13.00;;;8.03;;
16407;SDS011;8313;49.894;8.084;2022-12-18T03:54:25;13.83;;;8.47;;
16407;SDS011;8313;49.894;8.084;2022-12-18T03:56:30;17.50;;;6.53;;
16407;SDS011;8313;49.894;8.084;2022-12-18T03:58:59;15.50;;;5.00;;
16407;SDS011;8313;49.894;8.084;2022-12-18T04:01:30;11.23;;;6.17;;
16407;SDS011;8313;49.894;8.084;2022-12-18T04:03:59;15.70;;;6.30;;
16407;SDS011;8313;49.894;8.084;2022-12-18T04:06:28;20.57;;;7.27;;
16407;SDS011;8313;49.894;8.084;2022-12-18T04:08:56;15.80;;;7.40;;
16407;SDS011;8313;49.894;8.084;2022-12-18T04:11:24;17.20;;;7.57;;
16407;SDS011;8313;49.894;8.084;2022-12-18T04:13:50;12.83;;;6.00;;
16407;SDS011;8313;49.894;8.084;2022-12-18T04:16:22;10.40;;;5.30;;
16407;SDS011;8313;49.894;8.084;2022-12-18T04:18:51;16.63;;;6.90;;
16407;SDS011;8313;49.894;8.084;2022-12-18T04:21:19;12.37;;;6.10;;
16407;SDS011;8313;49.894;8.084;2022-12-18T04:23:47;13.33;;;6.13;;
16407;SDS011;8313;49.894;8.084;2022-12-18T04:26:12;12.53;;;6.07;;
16407;SDS011;8313;49.894;8.084;2022-12-18T04:28:50;13.27;;;7.47;;
16407;SDS011;8313;49.894;8.084;2022-12-18T04:31:16;16.90;;;6.50;;
16407;SDS011;8313;49.894;8.084;2022-12-18T04:33:42;11.20;;;5.87;;
16407;SDS011;8313;49.894;8.084;2022-12-18T04:36:08;15.37;;;6.90;;
16407;SDS011;8313;49.894;8.084;2022-12-18T04:38:34;10.90;;;5.20;;
16407;SDS011;8313;49.894;8.084;2022-12-18T04:41:05;11.73;;;4.90;;
16407;SDS011;8313;49.894;8.084;2022-12-18T04:43:31;13.83;;;5.50;;
16407;SDS011;8313;49.894;8.084;2022-12-18T04:46:02;12.70;;;4.97;;
16407;SDS011;8313;49.894;8.084;2022-12-18T04:48:28;15.83;;;6.50;;
16407;SDS011;8313;49.894;8.084;2022-12-18T04:50:54;15.80;;;6.63;;
16407;SDS011;8313;49.894;8.084;2022-12-18T04:53:19;10.67;;;6.73;;
16407;SDS011;8313;49.894;8.084;2022-12-18T04:55:45;18.30;;;6.57;;
16407;SDS011;8313;49.894;8.084;2022-12-18T04:58:12;11.30;;;6.00;;
16407;SDS011;8313;49.894;8.084;2022-12-18T05:00:37;17.23;;;6.10;;
16407;SDS011;8313;49.894;8.084;2022-12-18T05:03:03;10.57;;;4.87;;
16407;SDS011;8313;49.894;8.084;2022-12-18T05:05:29;12.33;;;5.60;;
16407;SDS011;8313;49.894;8.084;2022-12-18T05:07:54;10.17;;;6.03;;
16407;SDS011;8313;49.894;8.084;2022-12-18T05:10:20;11.77;;;5.83;;
16407;SDS011;8313;49.894;8.084;2022-12-18T05:12:46;13.70;;;7.77;;
16407;SDS011;8313;49.894;8.084;2022-12-18T05:15:30;12.60;;;5.37;;
16407;SDS011;8313;49.894;8.084;2022-12-18T05:17:57;15.40;;;6.50;;
16407;SDS011;8313;49.894;8.084;2022-12-18T05:20:23;17.20;;;7.10;;
16407;SDS011;8313;49.894;8.084;2022-12-18T05:22:50;7.77;;;5.33;;
16407;SDS011;8313;49.894;8.084;2022-12-18T05:25:16;17.70;;;7.23;;
16407;SDS011;8313;49.894;8.084;2022-12-18T05:27:42;24.33;;;8.30;;
16407;SDS011;8313;49.894;8.084;2022-12-18T05:30:09;22.03;;;8.50;;
16407;SDS011;8313;49.894;8.084;2022-12-18T05:32:35;14.17;;;6.70;;
16407;SDS011;8313;49.894;8.084;2022-12-18T05:35:01;17.00;;;7.93;;
16407;SDS011;8313;49.894;8.084;2022-12-18T05:37:26;21.37;;;9.40;;
16407;SDS011;8313;49.894;8.084;2022-12-18T05:39:52;18.00;;;9.57;;
16407;SDS011;8313;49.894;8.084;2022-12-18T05:42:18;15.90;;;9.27;;
16407;SDS011;8313;49.894;8.084;2022-12-18T05:44:43;18.47;;;8.60;;
16407;SDS011;8313;49.894;8.084;2022-12-18T05:47:09;15.33;;;7.47;;
16407;SDS011;8313;49.894;8.084;2022-12-18T05:49:35;14.63;;;7.87;;
16407;SDS011;8313;49.894;8.084;2022-12-18T05:52:00;16.83;;;6.50;;
16407;SDS011;8313;49.894;8.084;2022-12-18T05:54:27;12.10;;;6.30;;
16407;SDS011;8313;49.894;8.084;2022-12-18T05:56:53;12.80;;;7.77;;
16407;SDS011;8313;49.894;8.084;2022-12-18T05:59:19;11.50;;;6.33;;
16407;SDS011;8313;49.894;8.084;2022-12-18T06:01:44;17.80;;;6.83;;
16407;SDS011;8313;49.894;8.084;2022-12-18T06:04:11;12.50;;;6.63;;
16407;SDS011;8313;49.894;8.084;2022-12-18T06:06:37;15.23;;;7.60;;
16407;SDS011;8313;49.894;8.084;2022-12-18T06:09:03;10.43;;;5.23;;
16407;SDS011;8313;49.894;8.084;2022-12-18T06:11:33;15.03;;;7.17;;
16407;SDS011;8313;49.894;8.084;2022-12-18T06:14:00;12.07;;;5.80;;
16407;SDS011;8313;49.894;8.084;2022-12-18T06:16:29;17.07;;;6.40;;
16407;SDS011;8313;49.894;8.084;2022-12-18T06:18:56;7.87;;;4.60;;
16407;SDS011;8313;49.894;8.084;2022-12-18T06:21:25;14.20;;;6.00;;
16407;SDS011;8313;49.894;8.084;2022-12-18T06:23:52;15.50;;;7.60;;
16407;SDS011;8313;49.894;8.084;2022-12-18T06:26:17;10.13;;;6.33;;
16407;SDS011;8313;49.894;8.084;2022-12-18T06:28:43;10.07;;;6.90;;
16407;SDS011;8313;49.894;8.084;2022-12-18T06:31:09;13.57;;;6.80;;
16407;SDS011;8313;49.894;8.084;2022-12-18T06:33:35;15.23;;;6.60;;
16407;SDS011;8313;49.894;8.084;2022-12-18T06:36:03;13.30;;;7.73;;
16407;SDS011;8313;49.894;8.084;2022-12-18T06:38:31;13.90;;;6.47;;
16407;SDS011;8313;49.894;8.084;2022-12-18T06:40:57;12.93;;;6.13;;
16407;SDS011;8313;49.894;8.084;2022-12-18T06:43:23;14.43;;;5.73;;
16407;SDS011;8313;49.894;8.084;2022-12-18T06:45:49;13.63;;;5.80;;
16407;SDS011;8313;49.894;8.084;2022-12-18T06:48:18;17.73;;;5.53;;
16407;SDS011;8313;49.894;8.084;2022-12-18T06:50:45;13.87;;;7.40;;
16407;SDS011;8313;49.894;8.084;2022-12-18T06:53:10;9.13;;;5.53;;
16407;SDS011;8313;49.894;8.084;2022-12-18T06:55:36;19.37;;;8.27;;
16407;SDS011;8313;49.894;8.084;2022-12-18T06:58:02;12.13;;;6.70;;
16407;SDS011;8313;49.894;8.084;2022-12-18T07:00:28;15.47;;;5.97;;
16407;SDS011;8313;49.894;8.084;2022-12-18T07:02:53;10.73;;;5.87;;
16407;SDS011;8313;49.894;8.084;2022-12-18T07:05:19;6.67;;;4.33;;
16407;SDS011;8313;49.894;8.084;2022-12-18T07:07:45;13.83;;;8.10;;
16407;SDS011;8313;49.894;8.084;2022-12-18T07:10:10;11.70;;;6.20;;
16407;SDS011;8313;49.894;8.084;2022-12-18T07:12:36;12.97;;;6.53;;
16407;SDS011;8313;49.894;8.084;2022-12-18T07:15:02;12.17;;;6.07;;
16407;SDS011;8313;49.894;8.084;2022-12-18T07:17:28;12.60;;;5.90;;
16407;SDS011;8313;49.894;8.084;2022-12-18T07:19:54;15.63;;;7.87;;
16407;SDS011;8313;49.894;8.084;2022-12-18T07:22:20;8.53;;;4.00;;
16407;SDS011;8313;49.894;8.084;2022-12-18T07:24:49;11.80;;;6.27;;
16407;SDS011;8313;49.894;8.084;2022-12-18T07:27:14;9.77;;;6.00;;
16407;SDS011;8313;49.894;8.084;2022-12-18T07:29:40;6.83;;;4.60;;
16407;SDS011;8313;49.894;8.084;2022-12-18T07:32:05;13.33;;;6.87;;
16407;SDS011;8313;49.894;8.084;2022-12-18T07:34:32;12.23;;;5.17;;
16407;SDS011;8313;49.894;8.084;2022-12-18T07:36:58;9.70;;;4.97;;
16407;SDS011;8313;49.894;8.084;2022-12-18T07:39:23;9.17;;;5.40;;
16407;SDS011;8313;49.894;8.084;2022-12-18T07:41:49;8.70;;;6.60;;
16407;SDS011;8313;49.894;8.084;2022-12-18T07:44:35;8.80;;;6.50;;
16407;SDS011;8313;49.894;8.084;2022-12-18T07:47:01;9.33;;;5.70;;
16407;SDS011;8313;49.894;8.084;2022-12-18T07:49:27;10.00;;;5.23;;
16407;SDS011;8313;49.894;8.084;2022-12-18T07:51:54;8.80;;;7.10;;
16407;SDS011;8313;49.894;8.084;2022-12-18T07:54:21;10.50;;;5.77;;
16407;SDS011;8313;49.894;8.084;2022-12-18T07:56:48;13.27;;;7.57;;
16407;SDS011;8313;49.894;8.084;2022-12-18T07:59:13;19.70;;;9.23;;
16407;SDS011;8313;49.894;8.084;2022-12-18T08:01:39;14.80;;;8.40;;
16407;SDS011;8313;49.894;8.084;2022-12-18T08:04:05;15.10;;;7.23;;
16407;SDS011;8313;49.894;8.084;2022-12-18T08:06:31;18.47;;;10.10;;
16407;SDS011;8313;49.894;8.084;2022-12-18T08:08:57;17.50;;;9.47;;
16407;SDS011;8313;49.894;8.084;2022-12-18T08:11:23;12.43;;;6.63;;
16407;SDS011;8313;49.894;8.084;2022-12-18T08:13:50;10.80;;;7.43;;
16407;SDS011;8313;49.894;8.084;2022-12-18T08:16:16;9.47;;;7.53;;
16407;SDS011;8313;49.894;8.084;2022-12-18T08:18:43;13.50;;;7.93;;
16407;SDS011;8313;49.894;8.084;2022-12-18T08:23:38;12.93;;;5.90;;
16407;SDS011;8313;49.894;8.084;2022-12-18T08:26:05;13.90;;;7.37;;
16407;SDS011;8313;49.894;8.084;2022-12-18T08:28:30;16.97;;;7.40;;
16407;SDS011;8313;49.894;8.084;2022-12-18T08:30:56;13.80;;;6.33;;
16407;SDS011;8313;49.894;8.084;2022-12-18T08:33:22;12.80;;;6.40;;
16407;SDS011;8313;49.894;8.084;2022-12-18T08:35:48;13.73;;;6.57;;
16407;SDS011;8313;49.894;8.084;2022-12-18T08:38:13;9.03;;;6.63;;
16407;SDS011;8313;49.894;8.084;2022-12-18T08:40:39;17.13;;;6.87;;
16407;SDS011;8313;49.894;8.084;2022-12-18T08:43:04;24.80;;;10.67;;
16407;SDS011;8313;49.894;8.084;2022-12-18T08:45:48;25.93;;;13.47;;
16407;SDS011;8313;49.894;8.084;2022-12-18T08:48:14;53.37;;;22.67;;
16407;SDS011;8313;49.894;8.084;2022-12-18T08:50:40;46.20;;;24.80;;
16407;SDS011;8313;49.894;8.084;2022-12-18T08:53:06;38.00;;;18.23;;
16407;SDS011;8313;49.894;8.084;2022-12-18T08:55:31;43.27;;;15.37;;
16407;SDS011;8313;49.894;8.084;2022-12-18T08:57:57;34.90;;;14.97;;
16407;SDS011;8313;49.894;8.084;2022-12-18T09:00:23;24.83;;;14.00;;
16407;SDS011;8313;49.894;8.084;2022-12-18T09:02:48;26.13;;;13.27;;
16407;SDS011;8313;49.894;8.084;2022-12-18T09:05:14;27.83;;;13.77;;
16407;SDS011;8313;49.894;8.084;2022-12-18T09:07:40;25.60;;;12.40;;
16407;SDS011;8313;49.894;8.084;2022-12-18T09:10:05;17.23;;;8.60;;
16407;SDS011;8313;49.894;8.084;2022-12-18T09:12:31;21.70;;;9.77;;
16407;SDS011;8313;49.894;8.084;2022-12-18T09:14:57;19.07;;;10.30;;
16407;SDS011;8313;49.894;8.084;2022-12-18T09:17:23;16.17;;;10.60;;
16407;SDS011;8313;49.894;8.084;2022-12-18T09:19:48;14.30;;;8.37;;
16407;SDS011;8313;49.894;8.084;2022-12-18T09:22:14;23.53;;;10.47;;
16407;SDS011;8313;49.894;8.084;2022-12-18T09:24:40;33.50;;;9.60;;
16407;SDS011;8313;49.894;8.084;2022-12-18T09:27:05;19.07;;;9.43;;
16407;SDS011;8313;49.894;8.084;2022-12-18T09:29:31;20.90;;;9.30;;
16407;SDS011;8313;49.894;8.084;2022-12-18T09:31:57;13.30;;;7.87;;
16407;SDS011;8313;49.894;8.084;2022-12-18T09:34:23;18.47;;;9.37;;
16407;SDS011;8313;49.894;8.084;2022-12-18T09:36:49;17.07;;;8.63;;
16407;SDS011;8313;49.894;8.084;2022-12-18T09:39:15;19.07;;;9.87;;
16407;SDS011;8313;49.894;8.084;2022-12-18T09:41:51;13.57;;;8.90;;
16407;SDS011;8313;49.894;8.084;2022-12-18T09:46:53;15.33;;;7.37;;
16407;SDS011;8313;49.894;8.084;2022-12-18T09:49:21;14.23;;;7.40;;
16407;SDS011;8313;49.894;8.084;2022-12-18T09:51:52;20.80;;;7.57;;
16407;SDS011;8313;49.894;8.084;2022-12-18T09:54:21;13.43;;;7.50;;
16407;SDS011;8313;49.894;8.084;2022-12-18T09:56:51;13.47;;;7.50;;
16407;SDS011;8313;49.894;8.084;2022-12-18T10:02:17;20.63;;;11.47;;
16407;SDS011;8313;49.894;8.084;2022-12-18T10:04:47;13.77;;;9.50;;
16407;SDS011;8313;49.894;8.084;2022-12-18T10:10:39;15.63;;;10.50;;
16407;SDS011;8313;49.894;8.084;2022-12-18T10:16:07;25.67;;;10.47;;
16407;SDS011;8313;49.894;8.084;2022-12-18T10:21:22;23.03;;;11.70;;
16407;SDS011;8313;49.894;8.084;2022-12-18T10:23:58;22.60;;;10.00;;
16407;SDS011;8313;49.894;8.084;2022-12-18T10:26:37;23.10;;;11.37;;
16407;SDS011;8313;49.894;8.084;2022-12-18T10:29:07;25.17;;;10.47;;
16407;SDS011;8313;49.894;8.084;2022-12-18T10:31:37;16.03;;;8.73;;
16407;SDS011;8313;49.894;8.084;2022-12-18T10:34:02;25.70;;;12.03;;
16407;SDS011;8313;49.894;8.084;2022-12-18T10:36:28;20.90;;;9.00;;
16407;SDS011;8313;49.894;8.084;2022-12-18T10:38:55;24.03;;;10.87;;
16407;SDS011;8313;49.894;8.084;2022-12-18T10:41:40;14.17;;;8.03;;
16407;SDS011;8313;49.894;8.084;2022-12-18T10:44:15;21.97;;;10.80;;
16407;SDS011;8313;49.894;8.084;2022-12-18T10:46:49;18.87;;;8.87;;
16407;SDS011;8313;49.894;8.084;2022-12-18T10:49:22;12.20;;;8.70;;
16407;SDS011;8313;49.894;8.084;2022-12-18T10:51:51;16.30;;;7.63;;
16407;SDS011;8313;49.894;8.084;2022-12-18T10:54:31;22.70;;;10.30;;
16407;SDS011;8313;49.894;8.084;2022-12-18T10:57:13;15.30;;;8.20;;
16407;SDS011;8313;49.894;8.084;2022-12-18T10:59:59;14.37;;;8.43;;
16407;SDS011;8313;49.894;8.084;2022-12-18T11:02:45;20.33;;;9.53;;
16407;SDS011;8313;49.894;8.084;2022-12-18T11:05:24;19.50;;;8.87;;
16407;SDS011;8313;49.894;8.084;2022-12-18T11:07:58;17.23;;;9.23;;
16407;SDS011;8313;49.894;8.084;2022-12-18T11:10:26;19.07;;;11.53;;
16407;SDS011;8313;49.894;8.084;2022-12-18T11:12:53;16.43;;;9.07;;
16407;SDS011;8313;49.894;8.084;2022-12-18T11:15:20;23.40;;;10.13;;
16407;SDS011;8313;49.894;8.084;2022-12-18T11:17:50;22.63;;;9.17;;
16407;SDS011;8313;49.894;8.084;2022-12-18T11:20:29;15.73;;;8.13;;
16407;SDS011;8313;49.894;8.084;2022-12-18T11:23:10;20.13;;;10.60;;
16407;SDS011;8313;49.894;8.084;2022-12-18T11:25:38;22.97;;;12.03;;
16407;SDS011;8313;49.894;8.084;2022-12-18T11:30:50;20.13;;;10.80;;
16407;SDS011;8313;49.894;8.084;2022-12-18T11:33:40;25.57;;;11.77;;
16407;SDS011;8313;49.894;8.084;2022-12-18T11:36:09;24.53;;;12.10;;
16407;SDS011;8313;49.894;8.084;2022-12-18T11:38:39;25.60;;;9.90;;
16407;SDS011;8313;49.894;8.084;2022-12-18T11:41:15;19.93;;;9.97;;
16407;SDS011;8313;49.894;8.084;2022-12-18T11:44:24;18.17;;;10.70;;
16407;SDS011;8313;49.894;8.084;2022-12-18T11:47:34;16.90;;;9.20;;
16407;SDS011;8313;49.894;8.084;2022-12-18T11:50:12;16.30;;;9.47;;
16407;SDS011;8313;49.894;8.084;2022-12-18T11:52:43;28.97;;;11.60;;
16407;SDS011;8313;49.894;8.084;2022-12-18T11:55:18;15.77;;;10.27;;
16407;SDS011;8313;49.894;8.084;2022-12-18T12:00:43;18.17;;;9.00;;
16407;SDS011;8313;49.894;8.084;2022-12-18T12:06:19;26.40;;;11.50;;
16407;SDS011;8313;49.894;8.084;2022-12-18T12:11:41;19.50;;;11.10;;
16407;SDS011;8313;49.894;8.084;2022-12-18T12:25:10;19.50;;;9.80;;
16407;SDS011;8313;49.894;8.084;2022-12-18T12:30:27;23.70;;;11.83;;
16407;SDS011;8313;49.894;8.084;2022-12-18T12:33:43;22.57;;;12.27;;
16407;SDS011;8313;49.894;8.084;2022-12-18T12:39:23;24.43;;;14.97;;
16407;SDS011;8313;49.894;8.084;2022-12-18T12:41:53;37.30;;;13.37;;
16407;SDS011;8313;49.894;8.084;2022-12-18T12:44:44;17.67;;;9.77;;
16407;SDS011;8313;49.894;8.084;2022-12-18T12:47:48;26.50;;;14.17;;
16407;SDS011;8313;49.894;8.084;2022-12-18T12:50:13;18.37;;;11.67;;
16407;SDS011;8313;49.894;8.084;2022-12-18T12:52:43;23.07;;;10.33;;
16407;SDS011;8313;49.894;8.084;2022-12-18T12:55:14;19.80;;;9.77;;
16407;SDS011;8313;49.894;8.084;2022-12-18T13:00:22;22.47;;;9.97;;
16407;SDS011;8313;49.894;8.084;2022-12-18T13:08:10;23.67;;;12.10;;
16407;SDS011;8313;49.894;8.084;2022-12-18T13:10:49;26.33;;;13.93;;
16407;SDS011;8313;49.894;8.084;2022-12-18T13:13:52;27.93;;;14.07;;
16407;SDS011;8313;49.894;8.084;2022-12-18T13:16:21;31.73;;;14.10;;
16407;SDS011;8313;49.894;8.084;2022-12-18T13:18:56;29.70;;;15.47;;
16407;SDS011;8313;49.894;8.084;2022-12-18T13:21:27;29.83;;;13.90;;
16407;SDS011;8313;49.894;8.084;2022-12-18T13:24:14;36.77;;;13.93;;
16407;SDS011;8313;49.894;8.084;2022-12-18T13:26:47;22.30;;;11.53;;
16407;SDS011;8313;49.894;8.084;2022-12-18T13:29:14;24.80;;;14.30;;
16407;SDS011;8313;49.894;8.084;2022-12-18T13:32:40;33.07;;;12.90;;
16407;SDS011;8313;49.894;8.084;2022-12-18T13:37:43;33.17;;;15.17;;
16407;SDS011;8313;49.894;8.084;2022-12-18T13:40:52;36.90;;;14.57;;
16407;SDS011;8313;49.894;8.084;2022-12-18T13:45:49;33.50;;;17.07;;
16407;SDS011;8313;49.894;8.084;2022-12-18T13:48:25;36.00;;;13.07;;
16407;SDS011;8313;49.894;8.084;2022-12-18T13:50:53;33.67;;;11.67;;
16407;SDS011;8313;49.894;8.084;2022-12-18T13:53:34;27.87;;;12.77;;
16407;SDS011;8313;49.894;8.084;2022-12-18T13:56:04;19.90;;;11.13;;
16407;SDS011;8313;49.894;8.084;2022-12-18T13:58:31;25.77;;;11.07;;
16407;SDS011;8313;49.894;8.084;2022-12-18T14:00:58;25.40;;;11.30;;
16407;SDS011;8313;49.894;8.084;2022-12-18T14:03:25;18.93;;;11.33;;
16407;SDS011;8313;49.894;8.084;2022-12-18T14:05:56;22.73;;;11.80;;
16407;SDS011;8313;49.894;8.084;2022-12-18T14:08:29;25.47;;;12.70;;
16407;SDS011;8313;49.894;8.084;2022-12-18T14:11:00;20.63;;;11.77;;
16407;SDS011;8313;49.894;8.084;2022-12-18T14:13:31;20.43;;;10.43;;
16407;SDS011;8313;49.894;8.084;2022-12-18T14:16:01;21.20;;;10.83;;
16407;SDS011;8313;49.894;8.084;2022-12-18T14:18:36;26.67;;;12.77;;
16407;SDS011;8313;49.894;8.084;2022-12-18T14:21:17;26.30;;;12.97;;
16407;SDS011;8313;49.894;8.084;2022-12-18T14:23:46;35.87;;;15.47;;
16407;SDS011;8313;49.894;8.084;2022-12-18T14:26:31;34.67;;;14.40;;
16407;SDS011;8313;49.894;8.084;2022-12-18T14:28:59;23.00;;;12.27;;
16407;SDS011;8313;49.894;8.084;2022-12-18T14:31:42;25.57;;;15.67;;
16407;SDS011;8313;49.894;8.084;2022-12-18T14:34:08;33.50;;;14.40;;
16407;SDS011;8313;49.894;8.084;2022-12-18T14:36:53;27.60;;;14.87;;
16407;SDS011;8313;49.894;8.084;2022-12-18T14:39:21;50.83;;;15.20;;
16407;SDS011;8313;49.894;8.084;2022-12-18T14:41:50;30.00;;;13.40;;
16407;SDS011;8313;49.894;8.084;2022-12-18T14:44:16;24.43;;;13.00;;
16407;SDS011;8313;49.894;8.084;2022-12-18T14:46:43;25.43;;;12.67;;
16407;SDS011;8313;49.894;8.084;2022-12-18T14:49:25;27.10;;;12.93;;
16407;SDS011;8313;49.894;8.084;2022-12-18T14:51:57;23.90;;;12.40;;
16407;SDS011;8313;49.894;8.084;2022-12-18T14:54:28;22.30;;;10.20;;
16407;SDS011;8313;49.894;8.084;2022-12-18T14:56:59;30.37;;;14.20;;
16407;SDS011;8313;49.894;8.084;2022-12-18T14:59:28;21.97;;;12.00;;
16407;SDS011;8313;49.894;8.084;2022-12-18T15:02:09;26.10;;;13.07;;
16407;SDS011;8313;49.894;8.084;2022-12-18T15:05:04;27.97;;;11.87;;
16407;SDS011;8313;49.894;8.084;2022-12-18T15:07:43;21.23;;;10.70;;
16407;SDS011;8313;49.894;8.084;2022-12-18T15:10:17;21.17;;;10.47;;
16407;SDS011;8313;49.894;8.084;2022-12-18T15:18:02;23.60;;;11.40;;
16407;SDS011;8313;49.894;8.084;2022-12-18T15:20:32;21.50;;;10.33;;
16407;SDS011;8313;49.894;8.084;2022-12-18T15:23:15;21.67;;;11.40;;
16407;SDS011;8313;49.894;8.084;2022-12-18T15:25:47;28.67;;;12.27;;
16407;SDS011;8313;49.894;8.084;2022-12-18T15:28:36;25.47;;;10.40;;
16407;SDS011;8313;49.894;8.084;2022-12-18T15:34:09;21.77;;;11.47;;
16407;SDS011;8313;49.894;8.084;2022-12-18T15:36:44;24.93;;;11.60;;
16407;SDS011;8313;49.894;8.084;2022-12-18T15:39:11;25.37;;;12.23;;
16407;SDS011;8313;49.894;8.084;2022-12-18T15:41:37;22.57;;;11.87;;
16407;SDS011;8313;49.894;8.084;2022-12-18T15:44:15;27.20;;;11.90;;
16407;SDS011;8313;49.894;8.084;2022-12-18T15:46:47;23.20;;;10.40;;
16407;SDS011;8313;49.894;8.084;2022-12-18T15:49:13;21.73;;;11.20;;
16407;SDS011;8313;49.894;8.084;2022-12-18T15:51:39;27.57;;;13.40;;
16407;SDS011;8313;49.894;8.084;2022-12-18T15:54:05;32.33;;;13.67;;
16407;SDS011;8313;49.894;8.084;2022-12-18T15:56:36;26.57;;;13.20;;
16407;SDS011;8313;49.894;8.084;2022-12-18T15:59:20;24.30;;;11.73;;
16407;SDS011;8313;49.894;8.084;2022-12-18T16:01:48;25.27;;;12.27;;
16407;SDS011;8313;49.894;8.084;2022-12-18T16:04:18;26.93;;;12.63;;
16407;SDS011;8313;49.894;8.084;2022-12-18T16:06:45;26.10;;;13.97;;
16407;SDS011;8313;49.894;8.084;2022-12-18T16:09:12;32.57;;;16.63;;
16407;SDS011;8313;49.894;8.084;2022-12-18T16:11:39;41.27;;;18.83;;
16407;SDS011;8313;49.894;8.084;2022-12-18T16:14:19;28.80;;;16.10;;
16407;SDS011;8313;49.894;8.084;2022-12-18T16:16:54;24.40;;;14.77;;
16407;SDS011;8313;49.894;8.084;2022-12-18T16:19:21;25.33;;;11.90;;
16407;SDS011;8313;49.894;8.084;2022-12-18T16:21:47;24.30;;;10.40;;
16407;SDS011;8313;49.894;8.084;2022-12-18T16:24:18;29.37;;;13.27;;
16407;SDS011;8313;49.894;8.084;2022-12-18T16:26:49;26.27;;;12.17;;
16407;SDS011;8313;49.894;8.084;2022-12-18T16:29:19;22.90;;;11.00;;
16407;SDS011;8313;49.894;8.084;2022-12-18T16:31:52;21.57;;;10.90;;
16407;SDS011;8313;49.894;8.084;2022-12-18T16:34:31;34.17;;;13.63;;
16407;SDS011;8313;49.894;8.084;2022-12-18T16:36:59;30.50;;;11.90;;
16407;SDS011;8313;49.894;8.084;2022-12-18T16:39:26;38.10;;;16.07;;
16407;SDS011;8313;49.894;8.084;2022-12-18T16:41:52;26.87;;;12.10;;